createdAt,value
2022-09-29T18:58:39.001Z,694.57
2022-09-29T19:01:05.465Z,691.97
2022-09-29T19:03:31.880Z,687.10
2022-09-29T19:05:58.285Z,686.33
2022-09-29T19:08:24.672Z,688.43
2022-09-29T19:10:51.083Z,687.70
2022-09-29T19:13:17.468Z,684.63
2022-09-29T19:15:43.922Z,685.20
2022-09-29T19:18:10.334Z,685.97
2022-09-29T19:20:36.740Z,685.93
2022-09-29T19:23:03.170Z,685.33
2022-09-29T19:25:29.608Z,685.77
2022-09-29T19:27:55.993Z,687.70
2022-09-29T19:30:22.387Z,688.53
2022-09-29T19:32:48.772Z,688.80
2022-09-29T19:35:15.184Z,702.77
2022-09-29T19:37:41.615Z,689.43
2022-09-29T19:40:08.001Z,708.63
2022-09-29T19:42:34.373Z,708.67
2022-09-29T19:45:00.778Z,708.13
2022-09-29T19:47:27.159Z,700.57
2022-09-29T19:49:53.573Z,707.27
2022-09-29T19:52:19.971Z,699.77
2022-09-29T19:54:46.399Z,699.93
2022-09-29T19:57:12.838Z,713.27
2022-09-29T19:59:39.241Z,718.00
2022-09-29T20:02:05.713Z,704.87
2022-09-29T20:04:32.237Z,701.23
2022-09-29T20:06:58.760Z,698.13
2022-09-29T20:09:25.293Z,697.53
2022-09-29T20:11:51.723Z,700.53
2022-09-29T20:14:18.181Z,698.63
2022-09-29T20:16:44.595Z,692.17
2022-09-29T20:19:11.052Z,696.17
2022-09-29T20:21:37.458Z,691.93
2022-09-29T20:24:03.856Z,691.43
2022-09-29T20:26:30.248Z,697.17
2022-09-29T20:28:56.688Z,694.73
2022-09-29T20:31:23.139Z,695.57
2022-09-29T20:33:49.653Z,685.17
2022-09-29T20:36:16.050Z,690.63
2022-09-29T20:38:42.454Z,693.73
2022-09-29T20:41:08.831Z,687.70
2022-09-29T20:43:35.230Z,694.87
2022-09-29T20:46:01.655Z,689.93
2022-09-29T20:48:28.208Z,697.23
2022-09-29T20:50:54.612Z,685.67
2022-09-29T20:53:21.005Z,695.80
2022-09-29T20:55:47.407Z,693.83
2022-09-29T20:58:13.788Z,690.03
2022-09-29T21:00:40.234Z,685.77
2022-09-29T21:03:06.609Z,688.37
2022-09-29T21:05:32.998Z,685.40
2022-09-29T21:07:59.397Z,698.20
2022-09-29T21:10:25.812Z,687.30
2022-09-29T21:12:52.201Z,684.43
2022-09-29T21:15:18.585Z,685.03
2022-09-29T21:17:44.982Z,681.47
2022-09-29T21:20:11.605Z,682.83
2022-09-29T21:22:38.001Z,710.60
2022-09-29T21:25:04.415Z,691.77
2022-09-29T21:27:30.808Z,700.03
2022-09-29T21:29:57.199Z,684.07
2022-09-29T21:32:23.590Z,692.87
2022-09-29T21:34:49.978Z,692.63
2022-09-29T21:37:16.377Z,704.43
2022-09-29T21:39:42.783Z,686.97
2022-09-29T21:42:09.166Z,714.47
2022-09-29T21:44:35.554Z,723.60
2022-09-29T21:47:01.980Z,722.30
2022-09-29T21:49:28.397Z,714.90
2022-09-29T21:51:57.060Z,712.33
2022-09-29T21:54:25.577Z,708.13
2022-09-29T21:56:52.151Z,709.37
2022-09-29T21:59:18.584Z,713.70
2022-09-29T22:01:45.026Z,700.10
2022-09-29T22:04:11.487Z,715.30
2022-09-29T22:06:37.887Z,705.53
2022-09-29T22:09:04.345Z,712.10
2022-09-29T22:11:30.797Z,711.70
2022-09-29T22:13:57.216Z,702.57
2022-09-29T22:16:23.663Z,716.17
2022-09-29T22:19:05.819Z,706.00
2022-09-29T22:21:36.459Z,702.60
2022-09-29T22:24:02.838Z,714.30
2022-09-29T22:26:29.251Z,697.53
2022-09-29T22:28:55.665Z,706.63
